Time;durP1;ratioP1;P1;durP2;ratioP2;P2;SDS_P1;SDS_P2;PMS_P1;PMS_P2;Temp;Humidity;BMP_temperature;BMP_pressure;BME280_temperature;BME280_humidity;BME280_pressure;Samples;Min_cycle;Max_cycle;Signal;HPM_P1;HPM_P2
2023/01/12 00:01:59;;;;;;;;;;;7.60;99.90;;;;;;5027278;28;19947;-60
2023/01/12 00:04:26;;;;;;;;;;;7.60;99.90;;;;;;5036000;28;19983;-60
2023/01/12 00:06:52;;;;;;;;;;;7.60;99.90;;;;;;5035125;28;19967;-55
2023/01/12 00:09:20;;;;;;;;;;;7.60;99.90;;;;;;5035809;28;19921;-60
2023/01/12 00:11:47;;;;;;;;;;;7.60;99.90;;;;;;5029761;28;19928;-60
2023/01/12 00:14:13;;;;;;;;;;;7.60;99.90;;;;;;5024074;28;20331;-60
2023/01/12 00:16:40;;;;;;;;;;;7.60;99.90;;;;;;5015676;28;19921;-60
2023/01/12 00:19:09;;;;;;;;;;;7.60;99.90;;;;;;5015620;28;20004;-60
2023/01/12 00:21:45;;;;;;;;;;;7.60;99.90;;;;;;5023671;28;20547;-60
2023/01/12 00:24:12;;;;;;;;;;;7.70;99.90;;;;;;5031770;28;19924;-60
2023/01/12 00:26:40;;;;;;;;;;;7.70;99.90;;;;;;5035308;28;19921;-61
2023/01/12 00:29:06;;;;;;;;;;;7.70;99.90;;;;;;5035152;28;19921;-61
2023/01/12 00:31:33;;;;;;;;;;;7.70;99.90;;;;;;5035388;28;20322;-60
2023/01/12 00:34:00;;;;;;;;;;;7.60;99.90;;;;;;5034954;28;20422;-59
2023/01/12 00:36:26;;;;;;;;;;;7.60;99.90;;;;;;5035065;28;19921;-60
2023/01/12 00:38:53;;;;;;;;;;;7.60;99.90;;;;;;5034850;28;19991;-60
2023/01/12 00:46:45;;;;;;;;;;;7.60;99.90;;;;;;5014644;28;19928;-60
2023/01/12 00:49:12;;;;;;;;;;;7.60;99.90;;;;;;5015086;28;20352;-60
2023/01/12 00:51:38;;;;;;;;;;;7.60;99.90;;;;;;5014866;28;19921;-60
2023/01/12 00:54:07;;;;;;;;;;;7.60;99.90;;;;;;5015314;28;20363;-60
2023/01/12 00:56:33;;;;;;;;;;;7.60;99.90;;;;;;5014618;28;19922;-60
2023/01/12 00:59:01;;;;;;;;;;;7.60;99.90;;;;;;5015017;28;20359;-61
2023/01/12 01:01:28;;;;;;;;;;;7.60;99.90;;;;;;5025018;28;20343;-60
2023/01/12 01:03:54;;;;;;;;;;;7.60;99.90;;;;;;5034521;28;20395;-60
2023/01/12 01:06:21;;;;;;;;;;;7.60;99.90;;;;;;5034186;28;19975;-60
2023/01/12 01:08:48;;;;;;;;;;;7.60;99.90;;;;;;5033951;28;19921;-60
2023/01/12 01:11:15;;;;;;;;;;;7.70;99.90;;;;;;5033489;28;19921;-60
2023/01/12 01:13:43;;;;;;;;;;;7.70;99.90;;;;;;5022462;28;19979;-60
2023/01/12 01:16:12;;;;;;;;;;;7.70;99.90;;;;;;5014365;28;20016;-60
2023/01/12 01:18:38;;;;;;;;;;;7.70;99.90;;;;;;5014463;28;19976;-59
2023/01/12 01:21:05;;;;;;;;;;;7.70;99.90;;;;;;5014598;28;19968;-60
2023/01/12 01:23:33;;;;;;;;;;;7.70;99.90;;;;;;5017218;28;19940;-60
2023/01/12 01:26:02;;;;;;;;;;;7.70;99.90;;;;;;5025807;28;19975;-59
2023/01/12 01:28:28;;;;;;;;;;;7.70;99.90;;;;;;5033554;28;19925;-59
2023/01/12 01:31:02;;;;;;;;;;;7.70;99.90;;;;;;5034001;28;19921;-60
2023/01/12 01:33:30;;;;;;;;;;;7.70;99.90;;;;;;5034330;28;19921;-65
2023/01/12 01:35:56;;;;;;;;;;;7.70;99.90;;;;;;5033705;28;20035;-60
2023/01/12 01:38:23;;;;;;;;;;;7.70;99.90;;;;;;5034175;28;19921;-60
2023/01/12 01:40:49;;;;;;;;;;;7.70;99.90;;;;;;5033556;28;19925;-60
2023/01/12 01:43:18;;;;;;;;;;;7.70;99.90;;;;;;5024556;28;19925;-60
2023/01/12 01:45:45;;;;;;;;;;;7.70;99.90;;;;;;5013655;28;20376;-60
2023/01/12 01:48:13;;;;;;;;;;;7.70;99.90;;;;;;5014022;28;19933;-57
2023/01/12 01:50:43;;;;;;;;;;;7.70;99.90;;;;;;5013706;28;19928;-60
2023/01/12 01:53:11;;;;;;;;;;;7.70;99.90;;;;;;5014252;28;19925;-59
2023/01/12 01:55:39;;;;;;;;;;;7.70;99.90;;;;;;5013711;28;19933;-60
2023/01/12 01:58:08;;;;;;;;;;;7.80;99.90;;;;;;5013785;28;19983;-59
2023/01/12 02:00:38;;;;;;;;;;;7.80;99.90;;;;;;5014051;28;19922;-60
2023/01/12 02:03:05;;;;;;;;;;;7.80;99.90;;;;;;5013696;28;19976;-60
2023/01/12 02:05:32;;;;;;;;;;;7.90;99.90;;;;;;5013696;28;19979;-60
2023/01/12 02:08:03;;;;;;;;;;;7.90;99.90;;;;;;5013033;28;19982;-60
2023/01/12 02:10:30;;;;;;;;;;;7.90;99.90;;;;;;5013540;28;20355;-60
2023/01/12 02:18:35;;;;;;;;;;;7.90;99.90;;;;;;5032842;28;20402;-60
2023/01/12 02:21:20;;;;;;;;;;;7.90;99.90;;;;;;5031885;28;19933;-60
2023/01/12 02:24:04;;;;;;;;;;;8.00;99.90;;;;;;5032986;28;19983;-60
2023/01/12 02:26:49;;;;;;;;;;;7.90;99.90;;;;;;4999416;28;19983;-58
2023/01/12 02:29:49;;;;;;;;;;;8.00;99.90;;;;;;5020845;28;19921;-60
2023/01/12 02:32:19;;;;;;;;;;;8.00;99.90;;;;;;4952617;28;19923;-60
2023/01/12 02:34:50;;;;;;;;;;;8.00;99.90;;;;;;4951961;29;19978;-60
2023/01/12 02:37:21;;;;;;;;;;;8.00;99.90;;;;;;4982048;28;20482;-60
2023/01/12 02:39:50;;;;;;;;;;;8.00;99.90;;;;;;5013025;28;19921;-60
2023/01/12 02:45:09;;;;;;;;;;;8.00;99.90;;;;;;5028427;28;20008;-60
2023/01/12 02:47:42;;;;;;;;;;;8.00;99.90;;;;;;5032539;28;19967;-60
2023/01/12 02:50:11;;;;;;;;;;;8.00;99.90;;;;;;5032842;28;20015;-60
2023/01/12 02:52:39;;;;;;;;;;;8.00;99.90;;;;;;5032443;28;20051;-60
2023/01/12 02:55:06;;;;;;;;;;;8.00;99.90;;;;;;5032739;28;19921;-57
2023/01/12 02:57:34;;;;;;;;;;;8.00;99.90;;;;;;5023500;28;19925;-60
2023/01/12 03:00:02;;;;;;;;;;;8.00;99.90;;;;;;5017166;28;19921;-59
2023/01/12 03:02:29;;;;;;;;;;;8.00;99.90;;;;;;5012430;28;19921;-60
2023/01/12 03:04:56;;;;;;;;;;;7.90;99.90;;;;;;5013079;28;19921;-58
2023/01/12 03:07:36;;;;;;;;;;;7.90;99.90;;;;;;5012172;28;19925;-60
2023/01/12 03:10:12;;;;;;;;;;;7.90;99.90;;;;;;5012620;28;20339;-60
2023/01/12 03:12:41;;;;;;;;;;;7.80;99.90;;;;;;5020256;28;19921;-59
2023/01/12 03:15:09;;;;;;;;;;;7.80;99.90;;;;;;5028470;28;19921;-60
2023/01/12 03:17:37;;;;;;;;;;;7.80;99.90;;;;;;5032046;28;20021;-60
2023/01/12 03:20:07;;;;;;;;;;;7.80;99.90;;;;;;5032133;28;19982;-60
2023/01/12 03:22:35;;;;;;;;;;;7.80;99.90;;;;;;5032315;28;19921;-60
2023/01/12 03:25:08;;;;;;;;;;;7.80;99.90;;;;;;5032001;28;19991;-60
2023/01/12 03:27:37;;;;;;;;;;;7.80;99.90;;;;;;5031886;28;19921;-60
2023/01/12 03:30:05;;;;;;;;;;;7.80;99.90;;;;;;5023381;28;19947;-60
2023/01/12 03:32:32;;;;;;;;;;;7.80;99.90;;;;;;5034422;28;19921;-59
2023/01/12 03:34:59;;;;;;;;;;;7.80;99.90;;;;;;5036181;28;19921;-60
2023/01/12 03:37:30;;;;;;;;;;;7.90;99.90;;;;;;5036129;28;19925;-60
2023/01/12 03:40:00;;;;;;;;;;;7.90;99.90;;;;;;5035849;28;19921;-58
2023/01/12 03:42:28;;;;;;;;;;;7.90;99.90;;;;;;5028309;28;19949;-59
2023/01/12 03:44:59;;;;;;;;;;;7.90;99.90;;;;;;5021614;28;19925;-55
2023/01/12 03:47:28;;;;;;;;;;;7.90;99.90;;;;;;5015890;28;19921;-52
2023/01/12 03:49:55;;;;;;;;;;;8.00;99.90;;;;;;5016398;28;20032;-53
2023/01/12 03:52:23;;;;;;;;;;;8.00;99.90;;;;;;5015830;28;20343;-59
2023/01/12 03:54:51;;;;;;;;;;;7.90;99.90;;;;;;5016348;28;19921;-59
2023/01/12 03:57:19;;;;;;;;;;;7.90;99.90;;;;;;5015715;28;20347;-57
2023/01/12 03:59:45;;;;;;;;;;;8.00;99.90;;;;;;5016253;28;20284;-59
2023/01/12 04:02:13;;;;;;;;;;;8.00;99.90;;;;;;5015593;28;19921;-60
2023/01/12 04:04:39;;;;;;;;;;;8.00;99.90;;;;;;5016136;28;19922;-58
2023/01/12 04:07:06;;;;;;;;;;;8.00;99.90;;;;;;5015413;28;19925;-59
2023/01/12 04:09:32;;;;;;;;;;;8.00;99.90;;;;;;5015590;28;20364;-57
2023/01/12 04:12:12;;;;;;;;;;;8.00;99.90;;;;;;5022475;28;19921;-59
2023/01/12 04:14:39;;;;;;;;;;;8.00;99.90;;;;;;5020060;28;20426;-60
2023/01/12 04:17:06;;;;;;;;;;;8.00;99.90;;;;;;5035436;28;19921;-59
2023/01/12 04:19:33;;;;;;;;;;;8.00;99.90;;;;;;5035090;28;19940;-59
2023/01/12 04:24:43;;;;;;;;;;;8.00;99.90;;;;;;5035111;28;20315;-60
2023/01/12 04:27:11;;;;;;;;;;;8.00;99.90;;;;;;5035196;28;19983;-60
2023/01/12 04:29:37;;;;;;;;;;;8.00;99.90;;;;;;5034966;28;19967;-59
2023/01/12 04:32:04;;;;;;;;;;;8.00;99.90;;;;;;5027447;28;20328;-60
2023/01/12 04:34:31;;;;;;;;;;;8.00;99.90;;;;;;5023405;28;19925;-60
2023/01/12 04:36:58;;;;;;;;;;;8.00;99.90;;;;;;5015129;28;19925;-60
2023/01/12 04:39:24;;;;;;;;;;;8.00;99.90;;;;;;5015412;28;19922;-59
2023/01/12 04:41:51;;;;;;;;;;;8.00;99.90;;;;;;5020560;28;19925;-60
2023/01/12 04:44:19;;;;;;;;;;;8.00;99.90;;;;;;5025519;28;20288;-60
2023/01/12 04:46:47;;;;;;;;;;;8.00;99.90;;;;;;5034347;28;19967;-60
2023/01/12 04:49:14;;;;;;;;;;;8.00;99.90;;;;;;5026156;28;19967;-60
2023/01/12 04:51:40;;;;;;;;;;;8.00;99.90;;;;;;5015001;28;19921;-58
2023/01/12 04:54:07;;;;;;;;;;;8.00;99.90;;;;;;5015214;28;19925;-60
2023/01/12 04:56:33;;;;;;;;;;;8.00;99.90;;;;;;5014786;28;19925;-60
2023/01/12 04:59:00;;;;;;;;;;;8.00;99.90;;;;;;5014947;28;20373;-60
2023/01/12 05:01:28;;;;;;;;;;;8.00;99.90;;;;;;5014682;28;19921;-60
2023/01/12 05:03:55;;;;;;;;;;;8.00;99.90;;;;;;5014866;28;19925;-60
2023/01/12 05:06:21;;;;;;;;;;;8.00;99.90;;;;;;5014813;28;19971;-60
2023/01/12 05:11:32;;;;;;;;;;;7.90;99.90;;;;;;5017862;28;20390;-60
2023/01/12 05:13:59;;;;;;;;;;;7.90;99.90;;;;;;5026205;28;19971;-60
2023/01/12 05:16:27;;;;;;;;;;;8.00;99.90;;;;;;5034490;28;19975;-60
2023/01/12 05:18:54;;;;;;;;;;;8.00;99.90;;;;;;5034331;28;19921;-59
2023/01/12 05:21:21;;;;;;;;;;;8.00;99.90;;;;;;5034437;28;19921;-60
2023/01/12 05:23:48;;;;;;;;;;;8.00;99.90;;;;;;5034113;28;20011;-57
2023/01/12 05:26:15;;;;;;;;;;;8.00;99.90;;;;;;5033994;28;19975;-56
2023/01/12 05:28:41;;;;;;;;;;;8.10;99.90;;;;;;5034428;28;19925;-56
2023/01/12 05:31:08;;;;;;;;;;;8.00;99.90;;;;;;5033823;28;19921;-59
2023/01/12 05:33:36;;;;;;;;;;;8.00;99.90;;;;;;5034237;28;20388;-57
2023/01/12 05:36:04;;;;;;;;;;;7.90;99.90;;;;;;5025292;28;19925;-58
2023/01/12 05:38:30;;;;;;;;;;;7.90;99.90;;;;;;5014782;28;20013;-60
2023/01/12 05:40:58;;;;;;;;;;;7.90;99.90;;;;;;5013711;28;19925;-59
2023/01/12 05:46:09;;;;;;;;;;;7.80;99.90;;;;;;5030433;28;20374;-63
2023/01/12 05:48:36;;;;;;;;;;;7.80;99.90;;;;;;5006138;28;19921;-63
2023/01/12 05:51:03;;;;;;;;;;;7.90;99.90;;;;;;5013646;28;19925;-63
2023/01/12 05:53:30;;;;;;;;;;;7.80;99.90;;;;;;5013839;28;19921;-63
2023/01/12 05:55:57;;;;;;;;;;;7.80;99.90;;;;;;5013475;28;19925;-63
2023/01/12 05:58:24;;;;;;;;;;;7.70;99.90;;;;;;5013593;28;19967;-63
2023/01/12 06:00:51;;;;;;;;;;;7.70;99.90;;;;;;5013743;28;19991;-63
2023/01/12 06:03:17;;;;;;;;;;;7.70;99.90;;;;;;5013454;28;19925;-63
2023/01/12 06:05:51;;;;;;;;;;;7.70;99.90;;;;;;5013608;28;20064;-63
2023/01/12 06:08:18;;;;;;;;;;;7.70;99.90;;;;;;5013501;28;19975;-62
2023/01/12 06:10:44;;;;;;;;;;;7.70;99.90;;;;;;5013626;28;19921;-63
2023/01/12 06:16:02;;;;;;;;;;;7.70;99.90;;;;;;5033193;28;19923;-63
2023/01/12 06:18:28;;;;;;;;;;;7.70;99.90;;;;;;5032985;28;20414;-62
2023/01/12 06:21:00;;;;;;;;;;;7.70;99.90;;;;;;5032698;28;19920;-61
2023/01/12 06:23:26;;;;;;;;;;;7.70;99.90;;;;;;5033393;28;19928;-62
2023/01/12 06:25:53;;;;;;;;;;;7.70;99.90;;;;;;5032689;28;20396;-63
2023/01/12 06:28:20;;;;;;;;;;;7.70;99.90;;;;;;5033191;28;19921;-62
2023/01/12 06:30:54;;;;;;;;;;;7.60;99.90;;;;;;5032511;28;19967;-63
2023/01/12 06:33:21;;;;;;;;;;;7.60;99.90;;;;;;5017445;28;20538;-61
2023/01/12 06:35:47;;;;;;;;;;;7.70;99.90;;;;;;5023959;28;19921;-64
2023/01/12 06:38:15;;;;;;;;;;;7.80;99.90;;;;;;5032695;28;20312;-61
2023/01/12 06:40:42;;;;;;;;;;;7.70;99.90;;;;;;5024140;28;19921;-60
2023/01/12 06:43:08;;;;;;;;;;;7.70;99.90;;;;;;5024571;28;19943;-60
2023/01/12 06:45:35;;;;;;;;;;;7.70;99.90;;;;;;5012859;28;20647;-59
2023/01/12 06:48:01;;;;;;;;;;;7.70;99.90;;;;;;5010349;28;19925;-61
2023/01/12 06:50:28;;;;;;;;;;;7.80;99.90;;;;;;5012744;28;19929;-62
2023/01/12 06:52:58;;;;;;;;;;;7.80;99.90;;;;;;5011833;28;20000;-60
2023/01/12 06:55:26;;;;;;;;;;;7.80;99.90;;;;;;5022806;28;19952;-61
2023/01/12 06:57:52;;;;;;;;;;;7.80;99.90;;;;;;5028245;28;19924;-62
2023/01/12 07:00:19;;;;;;;;;;;7.80;99.90;;;;;;5008195;28;19922;-64
2023/01/12 07:02:48;;;;;;;;;;;7.90;99.90;;;;;;5019222;28;20265;-63
2023/01/12 07:05:15;;;;;;;;;;;7.80;99.90;;;;;;5020596;28;20392;-64
2023/01/12 07:07:42;;;;;;;;;;;7.80;99.90;;;;;;5031156;28;19975;-65
2023/01/12 07:10:09;;;;;;;;;;;7.80;99.90;;;;;;5031412;28;20020;-65
2023/01/12 07:12:37;;;;;;;;;;;7.70;99.90;;;;;;5023515;28;19921;-64
2023/01/12 07:15:04;;;;;;;;;;;7.70;99.90;;;;;;5015630;28;19926;-65
2023/01/12 07:17:31;;;;;;;;;;;7.70;99.90;;;;;;5012339;28;20009;-64
2023/01/12 07:19:57;;;;;;;;;;;7.70;99.90;;;;;;5011703;28;19928;-62
2023/01/12 07:22:25;;;;;;;;;;;7.70;99.90;;;;;;5012010;28;19979;-62
2023/01/12 07:24:51;;;;;;;;;;;7.70;99.90;;;;;;5011975;28;19968;-60
2023/01/12 07:27:18;;;;;;;;;;;7.70;99.90;;;;;;5011541;28;20040;-64
2023/01/12 07:29:46;;;;;;;;;;;7.80;99.90;;;;;;5011713;28;19928;-61
2023/01/12 07:32:12;;;;;;;;;;;7.80;99.90;;;;;;5011748;28;19999;-62
2023/01/12 07:34:39;;;;;;;;;;;7.80;99.90;;;;;;5011879;28;19948;-62
2023/01/12 07:37:06;;;;;;;;;;;7.80;99.90;;;;;;5010963;28;20007;-63
2023/01/12 07:39:33;;;;;;;;;;;7.80;99.90;;;;;;5013381;28;19921;-62
2023/01/12 07:44:43;;;;;;;;;;;7.80;99.90;;;;;;5017887;28;20023;-62
2023/01/12 07:47:11;;;;;;;;;;;7.90;99.90;;;;;;5031696;28;20015;-62
2023/01/12 07:49:37;;;;;;;;;;;8.00;99.90;;;;;;5026920;28;19921;-62
2023/01/12 07:52:04;;;;;;;;;;;8.00;99.90;;;;;;5019599;28;19984;-63
2023/01/12 07:54:32;;;;;;;;;;;8.00;99.90;;;;;;5011668;28;20432;-62
2023/01/12 07:56:59;;;;;;;;;;;8.00;99.90;;;;;;5018036;28;20011;-63
2023/01/12 07:59:26;;;;;;;;;;;8.10;99.90;;;;;;5022745;28;20380;-61
2023/01/12 08:01:54;;;;;;;;;;;8.10;99.90;;;;;;5031099;28;19928;-62
2023/01/12 08:04:22;;;;;;;;;;;8.10;99.90;;;;;;5031199;28;20380;-60
2023/01/12 08:06:49;;;;;;;;;;;8.20;99.90;;;;;;5030742;28;19928;-61
2023/01/12 08:09:15;;;;;;;;;;;8.20;99.90;;;;;;5031196;28;20354;-60
2023/01/12 08:11:42;;;;;;;;;;;8.30;99.90;;;;;;5026282;28;19921;-61
2023/01/12 08:14:08;;;;;;;;;;;8.30;99.90;;;;;;5019585;28;19921;-61
2023/01/12 08:16:37;;;;;;;;;;;8.40;99.90;;;;;;5010819;28;19941;-61
2023/01/12 08:19:05;;;;;;;;;;;8.40;99.90;;;;;;5013880;28;19925;-60
2023/01/12 08:21:35;;;;;;;;;;;8.40;99.90;;;;;;5014757;28;19936;-60
2023/01/12 08:24:04;;;;;;;;;;;8.40;99.90;;;;;;5015074;28;19929;-63
2023/01/12 08:26:32;;;;;;;;;;;8.40;99.90;;;;;;5015025;28;20351;-58
2023/01/12 08:29:02;;;;;;;;;;;8.40;99.90;;;;;;5014421;28;19921;-59
2023/01/12 08:31:30;;;;;;;;;;;8.50;99.90;;;;;;5014856;28;20396;-61
2023/01/12 08:33:57;;;;;;;;;;;8.50;99.90;;;;;;5014855;28;19925;-57
2023/01/12 08:36:24;;;;;;;;;;;8.40;99.90;;;;;;5014599;28;20411;-60
2023/01/12 08:38:52;;;;;;;;;;;8.50;99.90;;;;;;5014232;28;19921;-62
2023/01/12 08:41:36;;;;;;;;;;;8.50;99.90;;;;;;5015769;28;19921;-60
2023/01/12 08:44:05;;;;;;;;;;;8.60;99.90;;;;;;5026192;28;19921;-61
2023/01/12 08:46:32;;;;;;;;;;;8.60;99.90;;;;;;5033958;28;20378;-59
2023/01/12 08:48:58;;;;;;;;;;;8.60;99.90;;;;;;5034293;28;19924;-61
2023/01/12 08:51:25;;;;;;;;;;;8.60;99.90;;;;;;5034053;28;19933;-60
2023/01/12 08:53:53;;;;;;;;;;;8.60;99.90;;;;;;5034487;28;19967;-60
2023/01/12 08:56:20;;;;;;;;;;;8.60;99.90;;;;;;5033610;28;19924;-58
2023/01/12 08:58:46;;;;;;;;;;;8.70;99.90;;;;;;5034003;28;19925;-61
2023/01/12 09:01:15;;;;;;;;;;;8.70;99.90;;;;;;5012289;28;19928;-64
2023/01/12 09:03:43;;;;;;;;;;;8.70;99.90;;;;;;5025678;28;19953;-61
2023/01/12 09:06:13;;;;;;;;;;;8.70;99.90;;;;;;5017618;28;19967;-62
2023/01/12 09:08:40;;;;;;;;;;;8.70;99.90;;;;;;5014057;28;19928;-63
2023/01/12 09:11:08;;;;;;;;;;;8.80;99.90;;;;;;5013840;28;19925;-62
2023/01/12 09:13:35;;;;;;;;;;;8.80;99.90;;;;;;5013668;28;20351;-62
2023/01/12 09:16:03;;;;;;;;;;;8.80;99.90;;;;;;5014155;28;19921;-61
2023/01/12 09:18:29;;;;;;;;;;;8.80;99.90;;;;;;5013738;28;20419;-61
2023/01/12 09:21:00;;;;;;;;;;;8.90;99.90;;;;;;5013899;28;19925;-61
2023/01/12 09:23:26;;;;;;;;;;;8.90;99.90;;;;;;5013901;28;20376;-61
2023/01/12 09:25:53;;;;;;;;;;;8.90;99.90;;;;;;5013324;28;19929;-61
2023/01/12 09:28:21;;;;;;;;;;;9.00;99.90;;;;;;5014260;28;20300;-61
2023/01/12 09:30:47;;;;;;;;;;;9.00;99.90;;;;;;5012777;28;20359;-62
2023/01/12 09:33:14;;;;;;;;;;;9.00;99.90;;;;;;5013668;28;19968;-60
2023/01/12 09:35:43;;;;;;;;;;;9.00;99.90;;;;;;5013423;28;19928;-61
2023/01/12 09:38:10;;;;;;;;;;;9.10;99.90;;;;;;5013658;28;19921;-60
2023/01/12 09:40:41;;;;;;;;;;;9.10;99.90;;;;;;5013650;28;19971;-62
2023/01/12 09:48:39;;;;;;;;;;;9.10;99.90;;;;;;4993384;28;20381;-63
2023/01/12 09:51:07;;;;;;;;;;;9.10;99.90;;;;;;4994162;28;20292;-62
2023/01/12 09:53:34;;;;;;;;;;;9.10;99.90;;;;;;4993777;28;19929;-62
2023/01/12 09:56:04;;;;;;;;;;;9.20;99.90;;;;;;4993543;28;19984;-62
2023/01/12 09:58:39;;;;;;;;;;;9.20;99.90;;;;;;4993252;28;20392;-62
2023/01/12 10:01:09;;;;;;;;;;;9.20;99.90;;;;;;4996705;28;19929;-62
2023/01/12 10:03:37;;;;;;;;;;;9.20;99.90;;;;;;5016700;28;19921;-62
2023/01/12 10:06:05;;;;;;;;;;;9.20;99.90;;;;;;5021201;28;19921;-63
2023/01/12 10:08:33;;;;;;;;;;;9.20;99.90;;;;;;5019504;28;19929;-63
2023/01/12 10:11:05;;;;;;;;;;;9.30;99.90;;;;;;5012370;28;20346;-63
2023/01/12 10:13:42;;;;;;;;;;;9.30;99.90;;;;;;5024420;28;19979;-60
2023/01/12 10:16:14;;;;;;;;;;;9.30;99.90;;;;;;5032548;28;19929;-64
2023/01/12 10:18:44;;;;;;;;;;;9.30;99.90;;;;;;5033012;28;19967;-62
2023/01/12 10:21:11;;;;;;;;;;;9.40;99.90;;;;;;5024608;28;20436;-61
2023/01/12 10:23:37;;;;;;;;;;;9.40;99.90;;;;;;5010130;28;20004;-63
2023/01/12 10:26:10;;;;;;;;;;;9.40;99.90;;;;;;5011514;28;19928;-61
2023/01/12 10:28:37;;;;;;;;;;;9.40;99.90;;;;;;5012512;28;19925;-62
2023/01/12 10:31:04;;;;;;;;;;;9.40;99.90;;;;;;5012339;28;19975;-63
2023/01/12 10:33:33;;;;;;;;;;;9.50;99.90;;;;;;5012108;28;19930;-60
2023/01/12 10:36:01;;;;;;;;;;;9.50;99.90;;;;;;5012284;28;20325;-61
2023/01/12 10:38:30;;;;;;;;;;;9.50;99.90;;;;;;5011886;28;19921;-60
2023/01/12 10:41:20;;;;;;;;;;;9.50;99.90;;;;;;5011654;28;20337;-60
2023/01/12 10:44:04;;;;;;;;;;;9.50;99.90;;;;;;5006931;28;19924;-64
2023/01/12 10:46:31;;;;;;;;;;;9.50;99.90;;;;;;5031943;28;19921;-63
2023/01/12 10:49:15;;;;;;;;;;;9.40;99.90;;;;;;5032164;28;19967;-59
2023/01/12 10:51:48;;;;;;;;;;;9.40;99.90;;;;;;5031884;28;20311;-62
2023/01/12 10:54:16;;;;;;;;;;;9.50;99.90;;;;;;5032399;28;19928;-60
2023/01/12 10:56:44;;;;;;;;;;;9.50;99.90;;;;;;5031322;28;19925;-62
2023/01/12 10:59:16;;;;;;;;;;;9.50;99.90;;;;;;5031558;28;20303;-63
2023/01/12 11:01:47;;;;;;;;;;;9.50;99.90;;;;;;5019795;28;19925;-63
2023/01/12 11:04:16;;;;;;;;;;;9.50;99.90;;;;;;5012260;28;20440;-62
2023/01/12 11:06:44;;;;;;;;;;;9.60;99.90;;;;;;5012003;28;20379;-62
2023/01/12 11:09:17;;;;;;;;;;;9.60;99.90;;;;;;5012091;28;19944;-64
2023/01/12 11:11:44;;;;;;;;;;;9.60;99.90;;;;;;5016548;28;20379;-61
2023/01/12 11:14:18;;;;;;;;;;;9.60;99.90;;;;;;5023242;28;19967;-61
2023/01/12 11:16:48;;;;;;;;;;;9.70;99.90;;;;;;5031533;28;20419;-61
2023/01/12 11:19:17;;;;;;;;;;;9.70;99.90;;;;;;5031312;28;20311;-61
2023/01/12 11:21:46;;;;;;;;;;;9.70;99.90;;;;;;5031679;28;20343;-64
2023/01/12 11:24:16;;;;;;;;;;;9.60;99.90;;;;;;5031505;28;19921;-64
2023/01/12 11:26:45;;;;;;;;;;;9.60;99.90;;;;;;5031300;28;20299;-63
2023/01/12 11:29:22;;;;;;;;;;;9.70;99.90;;;;;;5031776;28;19971;-63
2023/01/12 11:31:51;;;;;;;;;;;9.80;99.90;;;;;;5031397;28;19928;-61
2023/01/12 11:34:22;;;;;;;;;;;9.70;99.90;;;;;;5031431;28;20375;-61
2023/01/12 11:36:51;;;;;;;;;;;9.80;99.90;;;;;;5031429;28;20285;-57
2023/01/12 11:39:20;;;;;;;;;;;9.80;99.90;;;;;;5031714;28;19943;-61
2023/01/12 11:44:32;;;;;;;;;;;9.80;99.90;;;;;;5022149;28;19936;-60
2023/01/12 11:47:03;;;;;;;;;;;9.70;99.90;;;;;;5022860;28;19991;-60
2023/01/12 11:49:35;;;;;;;;;;;9.80;99.90;;;;;;5031034;28;19929;-61
2023/01/12 11:52:02;;;;;;;;;;;9.80;99.90;;;;;;5031244;28;19967;-59
2023/01/12 11:54:29;;;;;;;;;;;9.80;99.90;;;;;;5035279;28;20342;-60
2023/01/12 11:57:08;;;;;;;;;;;9.80;99.90;;;;;;5035393;28;19925;-54
2023/01/12 11:59:38;;;;;;;;;;;9.80;99.90;;;;;;5031056;28;19975;-60
2023/01/12 12:02:14;;;;;;;;;;;9.80;99.90;;;;;;5023266;28;19921;-56
2023/01/12 12:04:47;;;;;;;;;;;9.80;99.90;;;;;;5015698;28;19921;-59
2023/01/12 12:07:19;;;;;;;;;;;9.80;99.90;;;;;;5015454;28;19921;-57
2023/01/12 12:10:00;;;;;;;;;;;9.80;99.90;;;;;;5014718;28;19952;-60
2023/01/12 12:12:34;;;;;;;;;;;9.80;99.90;;;;;;5020535;28;20022;-58
2023/01/12 12:15:09;;;;;;;;;;;9.80;99.90;;;;;;5023115;28;19928;-62
2023/01/12 12:17:41;;;;;;;;;;;9.80;99.90;;;;;;4995528;28;19921;-61
2023/01/12 12:20:15;;;;;;;;;;;9.80;99.90;;;;;;4994884;28;19929;-60
2023/01/12 12:22:51;;;;;;;;;;;9.90;99.90;;;;;;4995281;28;20361;-59
2023/01/12 12:25:23;;;;;;;;;;;9.80;99.90;;;;;;5003727;28;19921;-58
2023/01/12 12:28:01;;;;;;;;;;;9.80;99.90;;;;;;5025890;28;20384;-59
2023/01/12 12:30:44;;;;;;;;;;;9.80;99.90;;;;;;5025923;28;19928;-61
2023/01/12 12:33:17;;;;;;;;;;;9.90;99.90;;;;;;5034291;28;19921;-59
2023/01/12 12:35:51;;;;;;;;;;;9.80;99.90;;;;;;5034781;28;20364;-60
2023/01/12 12:38:25;;;;;;;;;;;9.80;99.90;;;;;;5034397;28;19921;-60
2023/01/12 12:46:38;;;;;;;;;;;9.70;99.90;;;;;;5014622;28;19952;-66
2023/01/12 12:49:09;;;;;;;;;;;9.80;99.90;;;;;;5014551;28;19968;-66
2023/01/12 12:51:39;;;;;;;;;;;9.80;99.90;;;;;;5014444;28;19967;-65
2023/01/12 12:54:06;;;;;;;;;;;9.70;99.90;;;;;;5014537;28;19922;-66
2023/01/12 12:56:35;;;;;;;;;;;9.90;99.90;;;;;;5022620;28;19929;-64
2023/01/12 12:59:01;;;;;;;;;;;9.90;99.90;;;;;;5029760;28;20403;-60
2023/01/12 13:01:41;;;;;;;;;;;9.80;99.90;;;;;;5033485;28;19921;-56
2023/01/12 13:04:09;;;;;;;;;;;9.80;99.90;;;;;;5033787;28;19925;-59
2023/01/12 13:06:38;;;;;;;;;;;9.90;99.90;;;;;;5033355;28;19921;-61
2023/01/12 13:09:20;;;;;;;;;;;9.80;99.90;;;;;;5034242;28;20376;-61
2023/01/12 13:11:47;;;;;;;;;;;9.80;99.90;;;;;;5028003;28;19928;-62
2023/01/12 13:14:18;;;;;;;;;;;9.90;99.90;;;;;;5022185;28;19976;-61
2023/01/12 13:16:45;;;;;;;;;;;9.90;99.90;;;;;;5013812;28;19948;-57
2023/01/12 13:19:14;;;;;;;;;;;9.90;99.90;;;;;;5013665;28;19921;-60
2023/01/12 13:21:57;;;;;;;;;;;9.90;99.90;;;;;;5013648;28;20565;-60
2023/01/12 13:24:28;;;;;;;;;;;9.80;99.90;;;;;;5014128;28;19925;-60
2023/01/12 13:26:57;;;;;;;;;;;9.90;99.90;;;;;;5014024;28;20396;-60
2023/01/12 13:29:40;;;;;;;;;;;10.00;99.90;;;;;;5013329;28;19925;-58
2023/01/12 13:32:25;;;;;;;;;;;9.90;99.90;;;;;;5013952;28;19921;-58
2023/01/12 13:34:52;;;;;;;;;;;10.00;99.90;;;;;;5013631;28;19922;-59
2023/01/12 13:37:24;;;;;;;;;;;9.90;99.90;;;;;;5013535;28;19976;-53
2023/01/12 13:39:52;;;;;;;;;;;9.90;99.90;;;;;;5013002;28;19968;-58
2023/01/12 13:45:09;;;;;;;;;;;10.00;99.90;;;;;;5029378;28;19939;-59
2023/01/12 13:47:36;;;;;;;;;;;10.00;99.90;;;;;;5033284;28;19928;-56
2023/01/12 13:50:03;;;;;;;;;;;10.00;99.90;;;;;;5032664;28;19947;-59
2023/01/12 13:52:33;;;;;;;;;;;10.00;99.90;;;;;;5033067;28;20273;-60
2023/01/12 13:54:59;;;;;;;;;;;10.00;99.90;;;;;;5033549;28;19956;-59
2023/01/12 13:57:27;;;;;;;;;;;10.00;99.90;;;;;;5032313;28;19925;-60
2023/01/12 13:59:57;;;;;;;;;;;9.90;99.90;;;;;;5026913;28;20015;-58
2023/01/12 14:02:24;;;;;;;;;;;10.00;99.90;;;;;;5020948;28;19925;-60
2023/01/12 14:04:58;;;;;;;;;;;9.90;99.90;;;;;;5013510;28;20351;-59
2023/01/12 14:07:29;;;;;;;;;;;9.90;99.90;;;;;;5012585;28;20536;-56
2023/01/12 14:10:05;;;;;;;;;;;9.90;99.90;;;;;;5013019;28;19922;-59
2023/01/12 14:12:44;;;;;;;;;;;9.90;99.90;;;;;;5020844;28;20320;-59
2023/01/12 14:18:05;;;;;;;;;;;9.90;99.90;;;;;;5032605;28;20022;-58
2023/01/12 14:20:39;;;;;;;;;;;9.90;99.90;;;;;;5015392;28;19976;-59
2023/01/12 14:23:12;;;;;;;;;;;9.80;99.90;;;;;;5020909;28;19992;-60
2023/01/12 14:25:40;;;;;;;;;;;9.90;99.90;;;;;;4993117;28;19922;-59
2023/01/12 14:28:14;;;;;;;;;;;9.90;99.90;;;;;;4992899;28;20397;-59
2023/01/12 14:30:45;;;;;;;;;;;9.80;99.90;;;;;;4992294;28;20443;-60
2023/01/12 14:33:15;;;;;;;;;;;9.90;99.90;;;;;;4993236;28;20049;-60
2023/01/12 14:35:44;;;;;;;;;;;9.80;99.90;;;;;;4992809;28;19968;-60
2023/01/12 14:38:12;;;;;;;;;;;9.80;99.90;;;;;;4992725;28;20016;-60
2023/01/12 14:40:38;;;;;;;;;;;9.80;99.90;;;;;;4992279;28;19929;-60
2023/01/12 14:48:42;;;;;;;;;;;9.80;99.90;;;;;;5012666;28;19928;-59
2023/01/12 14:51:18;;;;;;;;;;;9.80;99.90;;;;;;5020102;28;19921;-59
2023/01/12 14:53:46;;;;;;;;;;;9.80;99.90;;;;;;5021739;28;21225;-59
2023/01/12 14:56:15;;;;;;;;;;;9.80;99.90;;;;;;5023282;28;19959;-58
2023/01/12 14:58:43;;;;;;;;;;;9.80;99.90;;;;;;5012073;28;19944;-61
2023/01/12 15:01:12;;;;;;;;;;;9.80;99.90;;;;;;5011925;28;20442;-62
2023/01/12 15:03:44;;;;;;;;;;;9.70;99.90;;;;;;5012484;28;19932;-59
2023/01/12 15:06:14;;;;;;;;;;;9.70;99.90;;;;;;5012024;28;19928;-61
2023/01/12 15:08:51;;;;;;;;;;;9.80;99.90;;;;;;5024122;28;19921;-61
2023/01/12 15:11:28;;;;;;;;;;;9.80;99.90;;;;;;5030055;28;19925;-61
2023/01/12 15:13:58;;;;;;;;;;;9.70;99.90;;;;;;5020546;28;19929;-64
2023/01/12 15:27:23;;;;;;;;;;;9.80;99.90;;;;;;5011799;28;19944;-59
2023/01/12 15:29:51;;;;;;;;;;;9.70;99.90;;;;;;5012926;28;19921;-59
2023/01/12 15:32:21;;;;;;;;;;;9.70;99.90;;;;;;5012588;28;19968;-57
2023/01/12 15:34:48;;;;;;;;;;;9.80;99.90;;;;;;5012559;28;19922;-59
2023/01/12 15:37:15;;;;;;;;;;;9.80;99.90;;;;;;5012788;28;20426;-58
2023/01/12 15:39:42;;;;;;;;;;;9.70;99.90;;;;;;5012668;28;19928;-54
2023/01/12 15:42:16;;;;;;;;;;;9.70;99.90;;;;;;5020799;28;19943;-59
2023/01/12 15:44:43;;;;;;;;;;;9.70;99.90;;;;;;5019050;28;19925;-56